Terminal Aerodrome Forecast
Issued by NWS

Home | Current Version | Previous Version | Graphics & Text | Print | Product List | Glossary On
Versions: 1 2 3 4 5 6 7 8 9 10 11 12 13 14 15 16 17 18 19 20 21 22 23 24 25 26
903
FTUS43 KGRB 142338
TAFCWA
TAF
KCWA 142338Z 1500/1524 14005KT P6SM SCT025 OVC045
      TEMPO 1500/1502 -SHRA BKN025
     FM150200 05004KT P6SM SCT012 BKN025
     FM150800 04003KT P6SM BKN010
      TEMPO 1510/1514 3SM BR BKN006
     FM151500 08005KT P6SM SCT012 BKN025
     FM151700 11005KT P6SM SCT025=

USA.gov is the U.S. government's official web portal to all federal, state and local government web resources and services.